Latest Weather Observations for Kalumburu

IDW60801

Issued at 10:23 am WST Sunday 28 November 2021 (issued every 10 minutes, with the page automatically refreshed every 10 minutes)

About weather observations | Map of weather stations | Latest weather observations for WA | Other Formats
Station Details ID: 001019 Name: KALUMBURU Lat: -14.30 Lon: 126.65 Height: 23.0 m
Data from the previous 72 hours. | See also: Recent months at Kalumburu
Date/Time
WST
Temp
°C
App
Temp
°C
Dew
Point
°C
Rel
Hum
%
Delta-T
°C
Wind Press
QNH
hPa
Press
MSL
hPa
Rain since
9am
mm
Dir  Spd
km/h
Gust
km/h
Spd
kts
Gust
kts
28/10:00am 36.0 37.0 18.6 36 11.4 ENE 11 24 6 13 1009.4 1009.2 0.0
28/09:30am 34.5 36.2 19.3 40 10.0 SSE 9 15 5 8 1009.8 1009.6 0.0
28/09:00am 33.6 36.1 21.1 48 8.4 SE 9 15 5 8 1009.9 1009.7 26.4
28/08:30am 32.4 35.3 21.0 51 7.7 SSE 7 13 4 7 1010.1 1009.9 26.4
28/08:00am 31.5 33.8 21.4 55 6.8 SSE 11 17 6 9 1010.1 1009.9 26.4
28/07:30am 30.5 33.9 22.7 63 5.3 SSE 9 15 5 8 1010.1 1009.9 26.2
28/07:00am 29.7 33.9 23.2 68 4.5 S 6 11 3 6 1010.0 1009.8 26.2
28/06:30am 28.6 32.9 23.3 73 3.6 S 6 13 3 7 1009.7 1009.5 26.2
28/06:00am 27.9 33.9 24.3 81 2.5 CALM 0 0 0 0 1009.5 1009.3 26.2
28/05:30am 25.8 31.8 24.2 91 1.1 CALM 0 0 0 0 1009.1 1008.9 26.2
28/05:00am 25.1 29.6 23.7 92 1.0 SSE 6 7 3 4 1008.6 1008.4 26.2
28/04:30am 25.6 30.7 24.0 91 1.1 S 4 7 2 4 1008.2 1008.0 26.2
28/04:00am 25.7 31.7 24.3 92 1.0 CALM 0 0 0 0 1007.9 1007.7 26.2
28/03:30am 25.7 31.6 24.1 91 1.1 CALM 0 0 0 0 1007.5 1007.3 26.2
28/03:00am 25.9 31.9 24.3 91 1.1 CALM 0 0 0 0 1007.6 1007.4 26.2
28/02:30am 26.0 32.3 24.8 93 0.8 CALM 0 0 0 0 1007.4 1007.2 26.2
28/02:00am 25.9 32.0 24.5 92 1.0 CALM 0 0 0 0 1007.4 1007.2 26.2
28/01:30am 25.9 31.2 24.3 91 1.1 SSW 4 6 2 3 1007.5 1007.3 26.2
28/01:00am 25.9 31.9 24.3 91 1.1 CALM 0 0 0 0 1007.3 1007.1 26.2
28/12:30am 25.9 31.5 24.3 91 1.1 ENE 2 7 1 4 1007.5 1007.3 26.2
28/12:00am 26.0 32.1 24.4 91 1.1 CALM 0 0 0 0 1008.0 1007.8 26.2
 
Date/Time
WST
Temp
°C
App
Temp
°C
Dew
Point
°C
Rel
Hum
%
Delta-T
°C
Wind Press
QNH
hPa
Press
MSL
hPa
Rain since
9am
mm
Dir  Spd
km/h
Gust
km/h
Spd
kts
Gust
kts
27/11:30pm 25.9 31.8 24.1 90 1.2 CALM 0 0 0 0 1008.3 1008.1 26.2
27/11:00pm 26.0 31.1 24.6 92 1.0 NNE 6 7 3 4 1008.8 1008.6 26.2
27/10:30pm 26.0 32.1 24.4 91 1.1 CALM 0 0 0 0 1009.6 1009.4 26.2
27/10:00pm 26.4 31.3 24.4 89 1.4 SSW 6 7 3 4 1009.7 1009.5 26.2
27/09:30pm 26.2 32.3 24.4 90 1.2 CALM 0 0 0 0 1009.6 1009.4 26.2
27/09:00pm 26.0 31.8 23.9 88 1.4 CALM 0 0 0 0 1009.6 1009.4 26.2
27/08:30pm 26.8 32.5 23.7 83 2.1 CALM 0 0 0 0 1009.1 1008.9 26.2
27/08:00pm 28.0 32.4 23.4 76 3.2 N 6 13 3 7 1008.9 1008.7 26.2
27/07:30pm 28.5 32.3 23.4 74 3.5 N 9 11 5 6 1009.1 1008.9 26.2
27/07:00pm 28.5 33.0 23.9 76 3.2 N 7 11 4 6 1008.7 1008.5 26.2
27/06:30pm 28.9 32.8 23.6 73 3.7 N 9 15 5 8 1007.9 1007.7 26.2
27/06:00pm 29.1 33.1 23.8 73 3.7 N 9 15 5 8 1007.6 1007.4 26.2
27/05:30pm 29.5 32.7 23.7 71 4.0 NNE 13 20 7 11 1007.2 1007.0 26.2
27/05:00pm 30.3 34.6 24.2 70 4.3 NNE 9 15 5 8 1006.8 1006.6 26.2
27/04:30pm 29.7 34.7 24.8 75 3.4 NNE 7 13 4 7 1006.5 1006.3 26.2
27/04:00pm 29.3 33.8 24.6 76 3.3 N 9 13 5 7 1006.4 1006.2 26.2
27/03:30pm 29.2 33.8 24.7 76 3.1 NW 9 15 5 8 1006.7 1006.5 26.2
27/03:00pm 27.4 33.1 25.0 87 1.7 E 4 7 2 4 1006.2 1006.0 26.2
27/02:30pm 25.4 31.2 24.0 92 1.0 CALM 0 0 0 0 1007.0 1006.8 26.2
27/02:00pm 24.7 29.0 23.3 92 1.0 SW 6 9 3 5 1007.1 1006.9 26.2
27/01:41pm 24.5 28.5 22.8 90 1.1 NNW 6 9 3 5 1007.2 1007.0 26.2
27/01:30pm 24.4 26.2 22.5 89 1.3 NW 17 24 9 13 1007.3 1007.1 26.0
27/01:00pm 25.0 25.9 21.9 83 2.1 W 20 39 11 21 1007.4 1007.2 10.4
27/12:30pm 27.3 28.3 24.2 83 2.1 N 26 35 14 19 1006.8 1006.6 1.8
27/12:28pm 27.5 29.0 24.4 83 2.2 N 24 33 13 18 1006.9 1006.7 1.6
27/12:24pm 28.1 29.7 23.9 78 2.9 N 22 33 12 18 1007.0 1006.8 0.8
27/12:13pm 29.1 31.7 24.0 74 3.5 NE 17 26 9 14 1007.2 1007.0 0.8
27/12:00pm 33.2 34.3 22.0 51 7.6 NNE 19 26 10 14 1007.4 1007.2 0.0
27/11:30am 35.9 38.0 19.3 37 11.0 SE 7 17 4 9 1007.4 1007.2 0.0
27/11:00am 34.9 37.1 20.5 43 9.7 S 9 13 5 7 1008.1 1007.9 0.0
27/10:30am 35.1 37.4 21.4 45 9.3 ESE 11 22 6 12 1008.4 1008.2 0.0
27/10:00am 33.9 36.4 21.0 47 8.7 SSE 9 15 5 8 1008.9 1008.7 0.0
27/09:30am 34.4 36.9 21.1 45 9.0 S 9 17 5 9 1009.3 1009.1 0.0
27/09:00am 33.5 36.3 21.6 49 8.1 SSW 9 15 5 8 1009.7 1009.5 0.0
27/08:30am 32.8 36.2 22.0 53 7.4 SSE 7 13 4 7 1009.8 1009.6 0.0
27/08:00am 32.2 35.7 22.9 58 6.4 S 9 13 5 7 1009.7 1009.5 0.0
27/07:30am 31.4 34.6 22.4 59 6.1 SSE 9 19 5 10 1009.7 1009.5 0.0
27/07:00am 30.1 33.3 22.3 63 5.3 SE 9 15 5 8 1009.5 1009.3 0.0
27/06:30am 29.3 33.1 22.8 68 4.4 SSE 7 11 4 6 1009.4 1009.2 0.0
27/06:00am 28.3 32.1 22.8 72 3.7 SE 7 13 4 7 1009.1 1008.9 0.0
27/05:30am 27.1 30.4 22.5 76 3.1 SSE 9 15 5 8 1008.6 1008.4 0.0
27/05:00am 26.3 30.2 22.6 80 2.5 SSE 6 9 3 5 1008.0 1007.8 0.0
27/04:30am 26.8 30.0 23.1 80 2.5 S 11 17 6 9 1007.7 1007.5 0.0
27/04:00am 26.7 30.5 22.8 79 2.6 S 7 13 4 7 1007.2 1007.0 0.0
27/03:30am 25.8 30.8 22.5 82 2.2 CALM 0 0 0 0 1006.9 1006.7 0.0
27/03:00am 26.2 31.1 22.3 79 2.6 CALM 0 0 0 0 1006.6 1006.4 0.0
27/02:30am 26.4 31.4 22.5 79 2.6 CALM 0 0 0 0 1006.6 1006.4 0.0
27/02:00am 26.9 31.1 22.5 77 3.0 SSW 4 7 2 4 1006.7 1006.5 0.0
27/01:30am 26.8 31.5 22.6 78 2.8 WNW 2 7 1 4 1006.5 1006.3 0.0
27/01:00am 26.8 31.6 22.2 76 3.1 CALM 0 0 0 0 1006.4 1006.2 0.0
27/12:30am 27.0 31.9 22.4 76 3.1 CALM 0 0 0 0 1006.8 1006.6 0.0
27/12:00am 27.2 32.1 22.4 75 3.2 CALM 0 0 0 0 1007.8 1007.6 0.0
 
Date/Time
WST
Temp
°C
App
Temp
°C
Dew
Point
°C
Rel
Hum
%
Delta-T
°C
Wind Press
QNH
hPa
Press
MSL
hPa
Rain since
9am
mm
Dir  Spd
km/h
Gust
km/h
Spd
kts
Gust
kts
26/11:30pm 27.6 31.8 22.5 74 3.5 W 4 7 2 4 1008.4 1008.2 0.0
26/11:00pm 27.8 32.7 22.3 72 3.7 CALM 0 0 0 0 1008.9 1008.7 0.0
26/10:30pm 28.2 31.2 22.0 69 4.2 SSE 9 15 5 8 1009.7 1009.5 0.0
26/10:00pm 28.5 31.3 21.5 66 4.7 SSW 9 15 5 8 1009.7 1009.5 0.0
26/09:30pm 28.6 31.2 22.6 70 4.1 S 13 20 7 11 1009.8 1009.6 0.0
26/09:00pm 30.4 35.8 23.3 66 4.9 CALM 0 13 0 7 1009.6 1009.4 0.0
26/08:30pm 30.6 34.7 23.3 65 5.0 NNW 7 13 4 7 1009.0 1008.8 0.0
26/08:00pm 30.8 34.6 23.5 65 5.1 N 9 13 5 7 1008.5 1008.3 0.0
26/07:30pm 31.0 34.0 23.4 64 5.2 N 13 20 7 11 1007.6 1007.4 0.0
26/07:00pm 31.1 33.9 23.0 62 5.6 NNW 13 22 7 12 1006.7 1006.5 0.0
26/06:30pm 31.4 33.1 21.6 56 6.6 N 15 22 8 12 1006.4 1006.2 0.0
26/06:00pm 31.3 34.0 22.9 61 5.8 NNW 13 20 7 11 1006.1 1005.9 0.0
26/05:30pm 31.9 35.2 22.6 58 6.4 NNW 9 17 5 9 1005.9 1005.7 0.0
26/05:00pm 32.5 35.1 22.6 56 6.8 N 13 20 7 11 1005.6 1005.4 0.0
26/04:30pm 33.2 36.2 22.6 53 7.3 N 11 17 6 9 1005.3 1005.1 0.0
26/04:00pm 33.7 36.5 20.8 46 8.7 NE 7 15 4 8 1005.5 1005.3 0.0
26/03:30pm 34.0 36.0 20.7 45 8.9 NNE 11 19 6 10 1005.2 1005.0 0.0
26/03:00pm 34.0 34.4 20.7 45 9.0 N 19 26 10 14 1004.7 1004.5 0.0
26/02:30pm 34.5 35.9 21.9 48 8.6 NNE 17 24 9 13 1004.8 1004.6 0.0
26/02:00pm 33.6 36.0 23.0 54 7.3 NE 15 20 8 11 1005.7 1005.5 0.0
26/01:39pm 33.4 35.9 22.5 52 7.5 NE 13 17 7 9 1005.4 1005.2 0.0
26/01:30pm 32.4 34.4 22.2 55 7.0 NNE 15 24 8 13 1005.7 1005.5 0.0
26/01:29pm 32.3 34.0 22.4 56 6.8 NNE 17 26 9 14 1005.7 1005.5 0.0
26/01:00pm 30.3 32.7 23.0 65 5.0 NE 15 26 8 14 1006.3 1006.1 0.0
26/12:30pm 31.0 32.4 21.8 58 6.2 N 17 39 9 21 1006.6 1006.4 0.0
26/12:00pm 32.8 34.7 22.0 53 7.4 NNW 15 24 8 13 1006.2 1006.0 0.0
26/11:30am 33.5 36.8 22.6 53 7.5 WNW 9 19 5 10 1006.7 1006.5 0.0
26/11:26am 34.4 38.3 22.5 50 8.2 SW 6 13 3 7 1006.7 1006.5 0.0
26/11:03am 35.0 37.4 21.6 45 9.1 E 11 17 6 9 1007.1 1006.9 0.0
26/11:00am 35.7 38.9 22.3 46 9.2 ESE 9 17 5 9 1006.9 1006.7 0.0
26/10:30am 35.4 37.6 20.5 41 10.0 ENE 9 13 5 7 1007.4 1007.2 0.0
26/10:00am 35.6 39.1 22.2 46 9.2 ESE 7 15 4 8 1007.9 1007.7 0.0
26/09:30am 34.3 38.1 22.7 50 8.0 SE 7 11 4 6 1008.2 1008.0 0.0
26/09:00am 33.8 37.9 22.9 53 7.5 NW 6 9 3 5 1008.2 1008.0 0.0
26/08:30am 33.6 38.3 22.7 53 7.5 S 2 9 1 5 1008.2 1008.0 0.0
26/08:00am 33.0 37.9 23.6 57 6.5 SSE 4 9 2 5 1008.1 1007.9 0.0
26/07:30am 31.9 37.0 24.0 63 5.5 WNW 4 9 2 5 1007.9 1007.7 0.0
26/07:00am 30.8 36.7 24.7 70 4.3 WSW 2 9 1 5 1007.8 1007.6 0.0
26/06:30am 29.9 35.2 25.0 75 3.4 S 6 9 3 5 1007.5 1007.3 0.0
26/06:00am 28.8 33.7 24.4 77 3.1 S 6 9 3 5 1007.4 1007.2 0.0
26/05:30am 27.6 32.8 24.2 82 2.4 S 4 11 2 6 1007.1 1006.9 0.0
26/05:00am 26.6 32.4 23.9 85 1.9 CALM 0 0 0 0 1006.8 1006.6 0.0
26/04:30am 26.9 32.6 23.8 83 2.1 CALM 0 0 0 0 1006.6 1006.4 0.0
26/04:00am 27.1 31.8 24.0 83 2.1 S 6 9 3 5 1006.4 1006.2 0.0
26/03:30am 27.4 32.0 23.8 81 2.5 SSW 6 7 3 4 1006.3 1006.1 0.0
26/03:00am 27.5 33.4 24.7 85 2.0 SW 2 6 1 3 1006.2 1006.0 0.0
26/02:30am 28.0 34.3 24.8 83 2.2 CALM 0 6 0 3 1006.1 1005.9 0.0
26/02:00am 28.3 33.9 24.9 82 2.4 WNW 4 9 2 5 1006.2 1006.0 0.0
26/01:30am 27.8 33.5 25.0 85 2.0 WNW 4 7 2 4 1006.3 1006.1 0.0
26/01:00am 27.3 32.8 24.0 82 2.3 WNW 2 6 1 3 1006.5 1006.3 0.0
26/12:30am 27.4 32.8 23.2 78 2.9 CALM 0 0 0 0 1006.5 1006.3 0.0
26/12:00am 28.1 33.3 23.5 76 3.2 NW 2 7 1 4 1006.7 1006.5 0.0
 
Date/Time
WST
Temp
°C
App
Temp
°C
Dew
Point
°C
Rel
Hum
%
Delta-T
°C
Wind Press
QNH
hPa
Press
MSL
hPa
Rain since
9am
mm
Dir  Spd
km/h
Gust
km/h
Spd
kts
Gust
kts
25/11:30pm 28.3 32.7 23.4 75 3.4 SW 6 7 3 4 1007.1 1006.9 0.0
25/11:00pm 27.9 32.6 21.9 70 4.0 CALM 0 0 0 0 1007.0 1006.8 0.0
25/10:30pm 28.4 33.1 21.9 68 4.4 CALM 0 0 0 0 1007.5 1007.3 0.0
25/10:00pm 28.7 33.0 22.0 67 4.5 ENE 2 7 1 4 1007.8 1007.6 0.0
25/09:30pm 29.3 33.9 21.8 64 5.0 CALM 0 0 0 0 1008.0 1007.8 0.0
25/09:00pm 29.4 33.7 21.9 64 5.1 SSW 2 7 1 4 1007.8 1007.6 0.0
25/08:30pm 29.7 32.9 21.6 61 5.4 SSE 7 11 4 6 1008.0 1007.8 0.0
25/08:00pm 30.7 35.7 24.8 71 4.1 NNW 7 15 4 8 1008.0 1007.8 0.0
25/07:30pm 30.9 35.5 24.8 70 4.3 NNW 9 15 5 8 1007.6 1007.4 0.0
25/07:00pm 30.9 34.5 25.0 71 4.2 N 15 20 8 11 1006.9 1006.7 0.0
25/06:30pm 31.2 35.1 24.8 69 4.5 N 13 19 7 10 1006.3 1006.1 0.0
25/06:00pm 31.3 34.9 24.4 66 4.8 NNW 13 17 7 9 1006.5 1006.3 0.0
25/05:30pm 31.6 35.1 24.2 65 5.2 N 13 20 7 11 1006.3 1006.1 0.0
25/05:00pm 32.0 34.6 23.3 60 6.0 N 15 20 8 11 1005.7 1005.5 0.0
25/04:30pm 32.4 34.3 22.8 57 6.6 N 17 22 9 12 1004.9 1004.7 0.0
25/04:00pm 32.5 35.7 23.7 59 6.1 N 13 19 7 10 1004.5 1004.3 0.0
25/03:30pm 32.2 35.0 23.7 61 5.9 N 15 20 8 11 1004.4 1004.2 0.0
25/03:00pm 31.7 35.5 24.0 63 5.4 NW 11 17 6 9 1004.6 1004.4 0.0
25/02:30pm 32.1 35.7 24.4 63 5.4 NW 13 20 7 11 1004.9 1004.7 0.0
25/02:00pm 32.7 35.7 24.7 62 5.6 NNW 17 26 9 14 1004.6 1004.4 0.0
25/01:32pm 33.4 36.0 24.0 58 6.6 NNW 17 28 9 15 1004.6 1004.4 0.0
25/01:30pm 33.6 36.2 23.9 57 6.8 NNW 17 26 9 14 1004.6 1004.4 0.0
25/01:14pm 34.2 36.2 23.6 54 7.4 NNW 19 26 10 14 1004.8 1004.6 0.0
25/01:00pm 34.7 37.0 23.4 52 7.9 NNW 17 28 9 15 1005.1 1004.9 0.0
25/12:30pm 36.6 38.7 23.1 45 9.4 N 17 24 9 13 1005.3 1005.1 0.0
25/12:00pm 35.4 37.1 23.4 50 8.4 NNW 20 28 11 15 1005.6 1005.4 0.0
25/11:30am 36.2 38.8 22.7 45 9.3 NW 13 26 7 14 1006.1 1005.9 0.0
25/11:00am 34.6 37.2 23.3 52 7.9 N 15 24 8 13 1006.5 1006.3 0.0
25/10:30am 36.6 40.0 22.7 44 9.6 NE 9 15 5 8 1006.8 1006.6 0.0

Other formats

Comma delimited format used in spreadsheet applications
http://www.bom.gov.au/fwo/IDW60801/IDW60801.94100.axf

JavaScript Object Notation format (JSON) in row-major order
http://www.bom.gov.au/fwo/IDW60801/IDW60801.94100.json

Data quality

Most of these data are generated automatically and are frequently updated. Quality checks on data are not normally performed. It is possible for incorrect values to appear. Refer to information at About Latest Weather Observations and please check the disclaimer before using these data.